Time;durP1;ratioP1;P1;durP2;ratioP2;P2;SDS_P1;SDS_P2;PMS_P1;PMS_P2;Temp;Humidity;BMP_temperature;BMP_pressure;BME280_temperature;BME280_humidity;BME280_pressure;Samples;Min_cycle;Max_cycle;Signal;HPM_P1;HPM_P2
2021/01/10 00:01:19;;;;;;;50.73;25.52;;;;;;;-0.74;82.32;99927.73;1700657;82;21299;-80
2021/01/10 00:03:47;;;;;;;47.35;24.12;;;;;;;-0.74;82.36;99933.95;1684982;83;21152;-76
2021/01/10 00:06:15;;;;;;;45.65;24.27;;;;;;;-0.72;82.56;99948.03;1698033;84;21191;-79
2021/01/10 00:08:43;;;;;;;45.98;23.87;;;;;;;-0.71;82.49;99938.12;1692245;82;21718;-81
2021/01/10 00:11:10;;;;;;;47.25;25.17;;;;;;;-0.69;82.60;99939.61;1692651;82;21683;-76
2021/01/10 00:13:40;;;;;;;49.63;24.63;;;;;;;-0.71;82.42;99937.59;1691431;82;21153;-75
2021/01/10 00:16:08;;;;;;;45.40;22.95;;;;;;;-0.69;82.29;99936.08;1692114;84;21206;-75
2021/01/10 00:18:35;;;;;;;45.95;24.05;;;;;;;-0.70;82.15;99936.58;1692024;82;21172;-78
2021/01/10 00:21:04;;;;;;;47.48;24.60;;;;;;;-0.71;81.92;99936.23;1694305;82;21188;-78
2021/01/10 00:23:31;;;;;;;46.23;24.27;;;;;;;-0.71;82.19;99936.23;1697654;82;21136;-77
2021/01/10 00:26:00;;;;;;;43.08;22.17;;;;;;;-0.70;82.07;99929.86;1706754;82;21143;-79
2021/01/10 00:28:28;;;;;;;45.45;23.10;;;;;;;-0.70;81.92;99917.77;1702674;82;21247;-76
2021/01/10 00:30:56;;;;;;;46.80;22.05;;;;;;;-0.69;81.97;99918.11;1697114;83;21137;-79
2021/01/10 00:33:23;;;;;;;42.80;22.73;;;;;;;-0.67;82.16;99913.38;1699607;82;21351;-76
2021/01/10 00:35:55;;;;;;;43.45;22.22;;;;;;;-0.67;81.71;99918.75;1698455;82;21259;-76
2021/01/10 00:38:26;;;;;;;46.70;22.73;;;;;;;-0.68;81.44;99911.69;1686386;83;21671;-78
2021/01/10 00:40:54;;;;;;;45.58;22.45;;;;;;;-0.67;81.76;99916.56;1706018;83;21227;-77
2021/01/10 00:43:22;;;;;;;46.23;23.25;;;;;;;-0.68;81.70;99909.52;1705214;83;21190;-76
2021/01/10 00:45:50;;;;;;;41.45;22.37;;;;;;;-0.70;81.54;99907.52;1720279;83;21141;-73
2021/01/10 00:48:18;;;;;;;;;;;;;;;-0.71;81.68;99914.74;1676947;83;21268;-74
2021/01/10 00:50:47;;;;;;;44.05;20.77;;;;;;;-0.73;81.80;99914.60;1701641;83;20191;-75
2021/01/10 00:53:15;;;;;;;45.70;22.87;;;;;;;-0.71;81.84;99919.31;1664457;83;21752;-74
2021/01/10 00:55:44;;;;;;;;;;;;;;;-0.70;81.65;99921.80;1707205;83;21201;-75
2021/01/10 00:58:12;;;;;;;46.85;22.13;;;;;;;-0.70;81.68;99924.48;1687437;84;20241;-73
2021/01/10 01:00:40;;;;;;;46.63;22.77;;;;;;;-0.67;81.08;99925.97;1688699;83;21137;-77
2021/01/10 01:03:09;;;;;;;44.40;22.30;;;;;;;-0.67;81.08;99925.97;1703179;83;21173;-76
2021/01/10 01:05:39;;;;;;;41.57;20.87;;;;;;;-0.67;81.38;99922.78;1702277;83;21121;-77
2021/01/10 01:08:08;;;;;;;;;;;;;;;-0.64;81.51;99924.27;1710320;83;21102;-77
2021/01/10 01:10:38;;;;;;;46.03;21.37;;;;;;;-0.66;81.21;99927.12;1718713;82;20156;-79
2021/01/10 01:13:07;;;;;;;44.20;20.70;;;;;;;-0.63;81.39;99930.48;1719194;82;21172;-79
2021/01/10 01:15:36;;;;;;;40.93;21.70;;;;;;;-0.60;81.59;99928.74;1703638;83;21243;-78
2021/01/10 01:18:04;;;;;;;37.80;20.02;;;;;;;-0.59;81.20;99931.27;1689049;83;21160;-77
2021/01/10 01:20:32;;;;;;;38.42;20.50;;;;;;;-0.58;81.00;99926.73;1706337;83;21252;-79
2021/01/10 01:23:02;;;;;;;41.05;20.55;;;;;;;-0.59;80.70;99930.42;1720248;83;21402;-79
2021/01/10 01:25:32;;;;;;;41.40;20.33;;;;;;;-0.63;80.78;99917.85;1687264;83;21180;-79
2021/01/10 01:28:00;;;;;;;40.12;20.10;;;;;;;-0.63;80.58;99921.08;1701949;83;21097;-78
2021/01/10 01:30:27;;;;;;;45.38;21.17;;;;;;;-0.65;80.80;99926.11;1695598;83;21254;-79
2021/01/10 01:32:56;;;;;;;;;;;;;;;-0.65;80.91;99930.64;1703413;83;21673;-79
2021/01/10 01:35:23;;;;;;;40.87;20.13;;;;;;;-0.67;80.77;99930.84;1697175;83;20570;-83
2021/01/10 01:37:52;;;;;;;42.03;20.80;;;;;;;-0.67;80.71;99935.38;1698672;82;21208;-84
2021/01/10 01:40:19;;;;;;;40.70;19.95;;;;;;;-0.68;80.70;99935.04;1700668;83;21537;-81
2021/01/10 01:42:48;;;;;;;40.48;20.60;;;;;;;-0.68;80.55;99943.10;1696948;83;21129;-80
2021/01/10 01:45:17;;;;;;;42.60;21.20;;;;;;;-0.68;80.75;99939.91;1693915;83;21141;-77
2021/01/10 01:47:44;;;;;;;39.05;20.05;;;;;;;-0.68;80.84;99946.63;1701426;83;21213;-79
2021/01/10 01:50:12;;;;;;;39.88;19.57;;;;;;;-0.65;80.52;99934.67;1687302;83;21187;-76
2021/01/10 01:52:42;;;;;;;40.17;20.62;;;;;;;-0.66;80.15;99941.90;1691062;83;21512;-78
2021/01/10 01:55:10;;;;;;;35.77;18.60;;;;;;;-0.67;80.31;99948.31;1697629;83;21165;-75
2021/01/10 01:57:39;;;;;;;38.30;19.83;;;;;;;-0.67;79.51;99943.44;1699465;83;21213;-76
2021/01/10 02:00:09;;;;;;;33.50;17.95;;;;;;;-0.68;79.69;99945.78;1707748;83;21293;-74
2021/01/10 02:02:43;;;;;;;36.23;18.80;;;;;;;-0.69;79.96;99949.02;1724847;83;21132;-76
2021/01/10 02:05:16;;;;;;;38.33;19.67;;;;;;;-0.68;79.59;99953.34;1691770;83;21185;-77
2021/01/10 02:08:06;;;;;;;34.30;18.30;;;;;;;-0.67;79.86;99947.47;1703132;83;21149;-81
2021/01/10 02:10:37;;;;;;;32.73;17.83;;;;;;;-0.69;79.23;99949.52;1699350;83;21173;-77
2021/01/10 02:13:10;;;;;;;34.87;18.23;;;;;;;-0.67;79.43;99947.47;1674496;85;21236;-81
2021/01/10 02:15:39;;;;;;;35.87;18.40;;;;;;;-0.68;79.38;99947.97;1704737;83;21137;-77
2021/01/10 02:18:08;;;;;;;31.67;17.17;;;;;;;-0.68;79.41;99956.03;1680493;83;21584;-79
2021/01/10 02:20:38;;;;;;;33.98;17.25;;;;;;;-0.70;78.43;99958.08;1715002;83;21580;-78
2021/01/10 02:23:26;;;;;;;31.77;16.40;;;;;;;-0.68;78.87;99957.38;1727338;83;21573;-81
2021/01/10 02:25:54;;;;;;;31.42;16.37;;;;;;;-0.67;78.67;99962.25;1710203;83;21550;-79
2021/01/10 02:31:06;;;;;;;32.57;16.83;;;;;;;-0.58;78.80;99967.05;1813019;77;22119;-78
2021/01/10 02:33:54;;;;;;;33.15;16.85;;;;;;;-0.61;78.61;99965.56;1756839;81;21497;-81
2021/01/10 02:36:42;;;;;;;34.37;16.83;;;;;;;-0.61;78.61;99965.56;1751719;78;21563;-74
2021/01/10 02:39:13;;;;;;;;;;;;;;;-0.60;78.40;99965.02;1751423;82;21120;-77
2021/01/10 02:41:50;;;;;;;35.53;17.33;;;;;;;-0.59;78.25;99966.20;1778602;78;20147;-79
2021/01/10 02:44:25;;;;;;;32.73;16.93;;;;;;;-0.58;78.41;99964.36;1792637;80;21160;-79
2021/01/10 02:46:53;;;;;;;30.37;16.67;;;;;;;-0.56;78.62;99960.97;1788348;78;21255;-76
2021/01/10 02:49:22;;;;;;;33.73;17.27;;;;;;;-0.54;78.49;99961.61;1747516;80;21544;-80
2021/01/10 02:51:50;;;;;;;35.23;17.57;;;;;;;-0.52;78.76;99955.53;1724723;81;21144;-76
2021/01/10 02:54:18;;;;;;;29.67;15.93;;;;;;;-0.52;78.68;99946.97;1744902;82;21177;-77
2021/01/10 02:57:09;;;;;;;30.87;16.93;;;;;;;-0.52;78.38;99941.59;1731168;80;21777;-78
2021/01/10 02:59:43;;;;;;;37.13;18.90;;;;;;;-0.51;78.87;99943.78;1734582;80;21723;-77
2021/01/10 03:02:13;;;;;;;33.53;18.40;;;;;;;-0.56;78.71;99945.69;1734526;80;21184;-78
2021/01/10 03:04:41;;;;;;;34.83;18.20;;;;;;;-0.57;78.91;99948.53;1753665;81;21156;-78
2021/01/10 03:07:10;;;;;;;33.70;18.02;;;;;;;-0.60;78.95;99948.90;1746407;80;21644;-78
2021/01/10 03:09:40;;;;;;;37.30;19.70;;;;;;;-0.60;79.38;99948.90;1745373;81;21230;-77
2021/01/10 03:12:26;;;;;;;36.27;20.60;;;;;;;-0.59;79.48;99946.05;1724378;81;21206;-74
2021/01/10 03:14:59;;;;;;;35.93;20.10;;;;;;;-0.57;79.51;99955.26;1722163;83;21185;-77
2021/01/10 03:17:34;;;;;;;38.17;20.93;;;;;;;-0.56;79.51;99960.97;1720371;81;21151;-79
2021/01/10 03:20:06;;;;;;;38.87;19.43;;;;;;;-0.60;79.53;99960.99;1725432;83;21135;-80
2021/01/10 03:22:34;;;;;;;38.37;21.20;;;;;;;-0.59;80.01;99963.52;1716718;80;21236;-78
2021/01/10 03:25:04;;;;;;;36.13;20.32;;;;;;;-0.59;79.69;99967.55;1715792;83;21127;-80
2021/01/10 03:27:35;;;;;;;41.57;22.83;;;;;;;-0.57;79.88;99963.32;1706129;83;21122;-81
2021/01/10 03:30:09;;;;;;;41.00;21.33;;;;;;;-0.58;79.67;99968.39;1712402;81;21182;-78
2021/01/10 03:32:37;;;;;;;38.10;20.70;;;;;;;-0.60;79.75;99965.86;1728943;81;21176;-79
2021/01/10 03:35:06;;;;;;;37.30;19.98;;;;;;;-0.59;79.92;99968.05;1733835;81;21176;-79
2021/01/10 03:37:35;;;;;;;37.87;21.33;;;;;;;-0.59;80.05;99961.33;1736512;83;21243;-79
2021/01/10 03:40:05;;;;;;;39.30;20.67;;;;;;;-0.57;80.25;99961.97;1724695;81;21142;-77
2021/01/10 03:42:34;;;;;;;38.37;21.10;;;;;;;-0.55;80.31;99969.34;1720286;83;21131;-78
2021/01/10 03:45:05;;;;;;;39.50;21.37;;;;;;;-0.54;80.21;99962.95;1738124;81;21109;-77
2021/01/10 03:47:34;;;;;;;44.43;22.20;;;;;;;-0.52;80.74;99956.88;1750594;82;21549;-76
2021/01/10 03:50:05;;;;;;;38.10;21.20;;;;;;;-0.51;80.93;99971.50;1734382;81;21149;-79
2021/01/10 03:52:33;;;;;;;37.67;20.80;;;;;;;-0.50;80.47;99961.55;1720485;83;21342;-79
2021/01/10 03:55:05;;;;;;;42.33;22.33;;;;;;;-0.53;80.39;99959.27;1720603;81;21684;-78
2021/01/10 03:57:38;;;;;;;41.90;22.57;;;;;;;-0.51;80.83;99967.97;1721174;83;21180;-80
2021/01/10 04:00:08;;;;;;;41.77;22.20;;;;;;;-0.52;80.32;99965.78;1720092;81;21127;-77
2021/01/10 04:02:38;;;;;;;41.33;22.17;;;;;;;-0.53;80.58;99970.02;1720357;83;21670;-77
2021/01/10 04:05:09;;;;;;;38.67;20.83;;;;;;;-0.54;80.57;99968.33;1716163;81;21188;-79
2021/01/10 04:07:36;;;;;;;42.08;22.67;;;;;;;-0.57;80.39;99972.22;1724632;82;21235;-81
2021/01/10 04:10:06;;;;;;;42.55;21.93;;;;;;;-0.60;80.57;99975.27;1727655;81;21133;-77
2021/01/10 04:12:33;;;;;;;38.63;22.00;;;;;;;-0.59;80.79;99973.42;1722562;82;21372;-78
2021/01/10 04:15:03;;;;;;;40.90;22.00;;;;;;;-0.59;80.73;99970.23;1735169;82;21579;-79
2021/01/10 04:17:30;;;;;;;37.03;20.97;;;;;;;-0.59;80.68;99968.05;1722056;81;21291;-79
2021/01/10 04:19:58;;;;;;;41.23;22.55;;;;;;;-0.61;80.61;99966.06;1728462;82;21137;-74
2021/01/10 04:22:26;;;;;;;39.13;22.13;;;;;;;-0.61;80.86;99972.28;1724778;81;21110;-75
2021/01/10 04:24:55;;;;;;;;;;;;;;;-0.59;81.22;99975.61;1722732;83;21694;-78
2021/01/10 04:27:23;;;;;;;37.53;21.53;;;;;;;-0.58;80.69;99975.92;1721056;81;20163;-79
2021/01/10 04:29:53;;;;;;;44.37;23.37;;;;;;;-0.57;80.52;99979.45;1722551;82;21925;-79
2021/01/10 04:32:21;;;;;;;39.35;21.05;;;;;;;-0.61;80.56;99984.88;1729453;81;21105;-76
2021/01/10 04:34:50;;;;;;;38.87;20.93;;;;;;;-0.65;80.54;99983.89;1740530;82;21723;-82
2021/01/10 04:37:18;;;;;;;35.65;19.92;;;;;;;-0.64;80.66;99980.70;1739658;81;21243;-80
2021/01/10 04:39:46;;;;;;;34.17;19.20;;;;;;;-0.63;80.43;99986.92;1740541;82;21136;-78
2021/01/10 04:42:14;;;;;;;35.48;19.60;;;;;;;-0.60;80.78;99986.53;1735064;81;21248;-76
2021/01/10 04:44:42;;;;;;;;;;;;;;;-0.57;80.65;99988.35;1689773;82;21202;-76
2021/01/10 04:47:10;;;;;;;37.65;21.25;;;;;;;-0.56;80.45;99992.72;1724642;81;20256;-80
2021/01/10 04:49:41;;;;;;;36.80;21.70;;;;;;;-0.60;79.91;99993.25;1721670;83;21126;-74
2021/01/10 04:52:08;;;;;;;39.80;21.23;;;;;;;-0.62;79.89;99997.98;1741750;82;21562;-79
2021/01/10 04:54:40;;;;;;;37.23;20.88;;;;;;;-0.65;80.13;99997.33;1663769;83;21180;-76
2021/01/10 04:57:12;;;;;;;41.73;22.40;;;;;;;-0.60;80.31;100002.66;1717513;83;21112;-79
2021/01/10 04:59:41;;;;;;;35.73;19.33;;;;;;;-0.55;80.35;100005.63;1742998;80;21194;-77
2021/01/10 05:02:09;;;;;;;35.77;19.57;;;;;;;-0.53;80.06;100011.68;1725112;83;21151;-83
2021/01/10 05:04:38;;;;;;;38.23;21.17;;;;;;;-0.50;79.71;100020.70;1740898;81;21117;-79
2021/01/10 05:07:07;;;;;;;33.80;19.50;;;;;;;-0.49;79.49;100014.31;1726070;83;21132;-80
2021/01/10 05:09:34;;;;;;;38.13;20.92;;;;;;;-0.48;79.30;100017.34;1736462;80;21140;-82
2021/01/10 05:12:04;;;;;;;40.90;19.83;;;;;;;-0.50;79.30;100018.01;1731260;82;21181;-81
2021/01/10 05:14:32;;;;;;;33.87;18.57;;;;;;;-0.47;79.89;100021.68;1714954;80;21143;-80
2021/01/10 05:17:00;;;;;;;36.05;17.95;;;;;;;-0.45;79.80;100027.20;1715443;84;21713;-77
2021/01/10 05:19:31;;;;;;;34.65;18.92;;;;;;;-0.44;79.13;100031.57;1722688;80;21561;-77
2021/01/10 05:22:05;;;;;;;34.27;19.37;;;;;;;-0.49;78.93;100029.94;1694658;84;21376;-81
2021/01/10 05:24:29;;;;;;;36.37;19.27;;;;;;;-0.51;79.25;100031.14;1715156;80;23690;-81
2021/01/10 14:38:29;;;;;;;34.57;18.23;;;;;;;0.40;76.81;100233.51;1817784;78;28194;-79
2021/01/10 14:40:58;;;;;;;32.07;17.73;;;;;;;0.34;76.79;100247.69;1786169;80;21223;-76
2021/01/10 14:43:25;;;;;;;32.05;17.20;;;;;;;0.31;76.85;100250.23;1794650;78;21111;-80
2021/01/10 14:45:57;;;;;;;;;;;;;;;0.31;76.86;100244.86;1820181;79;21111;-77
2021/01/10 14:48:25;;;;;;;32.80;17.70;;;;;;;0.32;76.97;100247.05;1786003;79;20202;-75
2021/01/10 14:50:54;;;;;;;31.52;17.12;;;;;;;0.27;76.83;100245.41;1771113;80;21193;-80
2021/01/10 14:53:22;;;;;;;33.50;16.73;;;;;;;0.23;76.93;100246.80;1767285;80;21132;-79
2021/01/10 14:55:50;;;;;;;31.97;17.27;;;;;;;0.17;76.95;100242.98;1847468;76;21539;-77
2021/01/10 14:58:18;;;;;;;33.00;17.27;;;;;;;0.16;77.24;100249.88;1835666;77;21139;-79
2021/01/10 15:00:47;;;;;;;31.17;16.55;;;;;;;0.14;77.04;100254.61;1844199;76;21286;-76
2021/01/10 15:03:15;;;;;;;28.87;15.83;;;;;;;0.10;77.04;100251.45;1843463;77;21155;-81
2021/01/10 15:05:43;;;;;;;31.17;16.35;;;;;;;0.10;77.19;100255.50;1844297;76;21527;-81
2021/01/10 15:08:11;;;;;;;28.52;16.05;;;;;;;0.07;77.14;100258.55;1840530;76;21568;-81
2021/01/10 15:10:39;;;;;;;30.67;16.20;;;;;;;0.08;77.37;100259.39;1855771;77;21112;-80
2021/01/10 15:13:08;;;;;;;33.18;16.02;;;;;;;0.06;76.93;100254.17;1842676;77;21110;-85
2021/01/10 15:15:36;;;;;;;30.27;15.43;;;;;;;0.07;76.95;100263.08;1821763;76;21091;-84
